createdAt,value
2018-12-18T00:00:20.898Z,2.39
2018-12-18T00:02:52.502Z,2.46
2018-12-18T00:05:29.432Z,2.50
2018-12-18T00:07:59.348Z,2.57
2018-12-18T00:10:32.767Z,2.48
2018-12-18T00:13:02.050Z,2.46
2018-12-18T00:15:31.218Z,2.48
2018-12-18T00:18:00.715Z,2.42
2018-12-18T00:20:30.369Z,2.41
2018-12-18T00:22:59.830Z,2.44
2018-12-18T00:25:29.976Z,2.42
2018-12-18T00:27:59.220Z,2.39
2018-12-18T00:30:29.296Z,2.35
2018-12-18T00:32:58.957Z,2.34
2018-12-18T00:35:28.897Z,2.39
2018-12-18T00:37:58.188Z,2.39
2018-12-18T00:40:27.891Z,2.42
2018-12-18T00:42:57.124Z,2.31
2018-12-18T00:45:26.371Z,2.32
2018-12-18T00:47:56.077Z,2.21
2018-12-18T00:50:25.265Z,2.18
2018-12-18T00:52:54.512Z,2.25
2018-12-18T00:55:25.337Z,2.27
2018-12-18T00:57:55.014Z,2.29
2018-12-18T01:00:25.545Z,2.43
2018-12-18T01:02:54.847Z,2.44
2018-12-18T01:05:24.164Z,2.52
2018-12-18T01:07:53.894Z,2.42
2018-12-18T01:10:25.070Z,2.54
2018-12-18T01:12:55.008Z,2.54
2018-12-18T01:15:24.275Z,2.47
2018-12-18T01:17:55.318Z,2.53
2018-12-18T01:20:25.745Z,2.58
2018-12-18T01:22:55.199Z,2.49
2018-12-18T01:25:24.807Z,2.45
2018-12-18T01:27:55.602Z,2.44
2018-12-18T01:30:26.140Z,2.42
2018-12-18T01:32:55.707Z,2.45
2018-12-18T01:35:24.899Z,2.39
2018-12-18T01:37:54.619Z,2.42
2018-12-18T01:40:24.946Z,2.45
2018-12-18T01:42:54.271Z,2.49
2018-12-18T01:45:23.512Z,2.52
2018-12-18T01:47:53.250Z,2.57
2018-12-18T01:50:23.088Z,2.60
2018-12-18T01:52:52.626Z,2.57
2018-12-18T01:55:22.930Z,2.58
2018-12-18T01:57:52.534Z,2.54
2018-12-18T02:00:21.844Z,2.68
2018-12-18T02:02:51.501Z,2.85
2018-12-18T02:05:20.819Z,2.88
2018-12-18T02:07:52.769Z,3.00
2018-12-18T02:10:22.537Z,3.03
2018-12-18T02:12:51.746Z,3.05
2018-12-18T02:15:21.828Z,2.79
2018-12-18T02:17:51.715Z,2.77
2018-12-18T02:20:21.231Z,2.80
2018-12-18T02:22:51.949Z,2.78
2018-12-18T02:25:22.745Z,2.99
2018-12-18T02:27:52.449Z,3.15
2018-12-18T02:30:22.431Z,3.17
2018-12-18T02:32:52.305Z,2.99
2018-12-18T02:35:22.666Z,2.93
2018-12-18T02:37:52.480Z,2.99
2018-12-18T02:40:23.567Z,2.98
2018-12-18T02:42:53.223Z,2.96
2018-12-18T02:45:22.442Z,3.02
2018-12-18T02:47:51.781Z,2.98
2018-12-18T02:50:21.312Z,3.02
2018-12-18T02:52:50.721Z,3.21
2018-12-18T02:55:20.577Z,3.39
2018-12-18T02:57:49.838Z,3.42
2018-12-18T03:00:20.480Z,3.41
2018-12-18T03:02:49.729Z,3.51
2018-12-18T03:05:19.364Z,3.55
2018-12-18T03:07:50.391Z,3.56
2018-12-18T03:10:24.923Z,3.62
2018-12-18T03:12:54.196Z,3.64
2018-12-18T03:15:24.185Z,3.66
2018-12-18T03:17:53.499Z,3.60
2018-12-18T03:20:23.256Z,3.57
2018-12-18T03:22:52.496Z,3.59
2018-12-18T03:25:21.753Z,3.60
2018-12-18T03:27:51.152Z,3.56
2018-12-18T03:30:20.445Z,3.55
2018-12-18T03:32:52.869Z,3.59
2018-12-18T03:35:22.333Z,3.56
2018-12-18T03:37:52.141Z,3.60
2018-12-18T03:40:21.431Z,3.58
2018-12-18T03:42:50.687Z,3.62
2018-12-18T03:45:21.996Z,3.70
2018-12-18T03:47:51.296Z,3.72
2018-12-18T03:50:21.033Z,3.74
2018-12-18T03:52:51.536Z,3.76
2018-12-18T03:55:21.249Z,3.81
2018-12-18T03:57:52.711Z,3.75
2018-12-18T04:00:23.746Z,3.72
2018-12-18T04:02:53.333Z,3.75
2018-12-18T04:05:23.616Z,3.81
2018-12-18T04:07:52.861Z,3.83
2018-12-18T04:10:22.205Z,3.97
2018-12-18T04:12:51.572Z,4.05
2018-12-18T04:15:20.847Z,4.05
2018-12-18T04:17:51.160Z,4.11
2018-12-18T04:20:20.405Z,4.08
2018-12-18T04:22:49.854Z,4.01
2018-12-18T04:25:19.105Z,3.97
2018-12-18T04:27:48.307Z,4.11
2018-12-18T04:30:17.965Z,4.13
2018-12-18T04:32:47.284Z,4.09
2018-12-18T04:35:18.538Z,4.10
2018-12-18T04:37:48.341Z,4.02
2018-12-18T04:40:19.629Z,4.02
2018-12-18T04:42:48.877Z,4.09
2018-12-18T04:45:18.105Z,4.16
2018-12-18T04:47:47.418Z,4.18
2018-12-18T04:50:18.582Z,4.19
2018-12-18T04:52:48.156Z,4.16
2018-12-18T04:55:18.332Z,4.21
2018-12-18T04:57:47.536Z,4.20
2018-12-18T05:00:16.790Z,4.21
2018-12-18T05:02:46.170Z,4.10
2018-12-18T05:05:16.450Z,4.11
2018-12-18T05:07:45.999Z,4.22
2018-12-18T05:10:16.814Z,4.26
2018-12-18T05:12:46.291Z,4.24
2018-12-18T05:15:15.599Z,4.17
2018-12-18T05:17:44.983Z,4.31
2018-12-18T05:20:14.290Z,4.32
2018-12-18T05:22:44.095Z,4.26
2018-12-18T05:25:14.054Z,4.26
2018-12-18T05:27:43.929Z,4.27
2018-12-18T05:30:13.186Z,4.13
2018-12-18T05:32:42.955Z,4.16
2018-12-18T05:35:13.127Z,4.22
2018-12-18T05:37:42.412Z,4.20
2018-12-18T05:40:12.402Z,4.15
2018-12-18T05:42:44.601Z,4.17
2018-12-18T05:45:13.801Z,4.07
2018-12-18T05:47:43.489Z,4.25
2018-12-18T05:50:13.324Z,4.24
2018-12-18T05:52:42.544Z,4.23
2018-12-18T05:55:11.780Z,4.27
2018-12-18T05:57:40.988Z,4.27
2018-12-18T06:00:10.808Z,4.01
2018-12-18T06:02:40.621Z,4.14
2018-12-18T06:05:10.848Z,4.03
2018-12-18T06:07:40.482Z,4.26
2018-12-18T06:10:11.948Z,4.33
2018-12-18T06:12:42.253Z,4.15
2018-12-18T06:15:12.703Z,4.29
2018-12-18T06:17:44.940Z,4.33
2018-12-18T06:20:14.794Z,4.39
2018-12-18T06:22:44.332Z,4.38
2018-12-18T06:25:14.007Z,4.45
2018-12-18T06:27:43.293Z,4.40
2018-12-18T06:30:13.007Z,4.40
2018-12-18T06:32:42.550Z,4.53
2018-12-18T06:35:11.946Z,4.54
2018-12-18T06:37:41.169Z,4.44
2018-12-18T06:40:10.733Z,4.42
2018-12-18T06:42:40.187Z,4.40
2018-12-18T06:45:09.950Z,4.52
2018-12-18T06:47:40.384Z,4.44
2018-12-18T06:50:10.333Z,4.36
2018-12-18T06:52:40.038Z,4.40
2018-12-18T06:55:13.066Z,4.48
2018-12-18T06:57:50.358Z,4.52
2018-12-18T07:00:27.969Z,4.43
2018-12-18T07:03:31.484Z,4.46
2018-12-18T07:06:17.915Z,4.33
2018-12-18T07:08:58.097Z,4.44
2018-12-18T07:11:36.627Z,4.36
2018-12-18T07:14:10.749Z,4.58
2018-12-18T07:16:43.926Z,4.48
2018-12-18T07:19:14.266Z,4.59
2018-12-18T07:21:44.157Z,4.44
2018-12-18T07:24:14.259Z,4.55
2018-12-18T07:26:44.278Z,4.43
2018-12-18T07:29:19.580Z,4.50
2018-12-18T07:31:54.543Z,4.46
2018-12-18T07:34:33.326Z,4.57
2018-12-18T07:37:04.411Z,4.53
2018-12-18T07:39:38.763Z,4.41
2018-12-18T07:42:12.362Z,4.57
2018-12-18T07:44:48.833Z,4.51
2018-12-18T07:47:23.640Z,4.56
2018-12-18T07:50:02.174Z,4.53
2018-12-18T07:52:36.238Z,4.43
2018-12-18T07:55:11.148Z,4.38
2018-12-18T07:57:46.307Z,4.41
2018-12-18T08:00:21.309Z,4.37
2018-12-18T08:03:06.707Z,4.39
2018-12-18T08:05:39.523Z,4.41
2018-12-18T08:08:20.493Z,4.43
2018-12-18T08:10:54.308Z,4.55
2018-12-18T08:13:27.980Z,4.52
2018-12-18T08:16:00.148Z,4.57
2018-12-18T08:21:30.487Z,4.78
2018-12-18T08:24:04.829Z,4.69
2018-12-18T08:26:37.255Z,4.72
2018-12-18T08:29:09.449Z,4.61
2018-12-18T08:31:48.238Z,4.68
2018-12-18T08:34:23.363Z,4.69
2018-12-18T08:36:53.181Z,4.84
2018-12-18T08:39:22.717Z,4.77
2018-12-18T08:41:53.468Z,4.73
2018-12-18T08:44:25.142Z,4.82
2018-12-18T08:46:56.709Z,4.72
2018-12-18T08:49:26.926Z,4.90
2018-12-18T08:51:56.190Z,4.86
2018-12-18T08:54:25.461Z,4.77
2018-12-18T08:56:55.159Z,4.94
2018-12-18T08:59:25.220Z,4.85
2018-12-18T09:01:54.932Z,4.81
2018-12-18T09:04:25.925Z,4.88
2018-12-18T09:06:56.474Z,4.95
2018-12-18T09:09:25.719Z,4.82
2018-12-18T09:11:56.921Z,4.62
2018-12-18T09:14:57.496Z,4.45
2018-12-18T09:17:32.800Z,4.51
2018-12-18T09:20:02.175Z,4.56
2018-12-18T09:22:32.461Z,4.58
2018-12-18T09:25:02.617Z,4.55
2018-12-18T09:27:36.569Z,4.65
2018-12-18T09:30:09.365Z,4.85
2018-12-18T09:32:38.642Z,4.96
2018-12-18T09:35:09.991Z,5.04
2018-12-18T09:37:39.659Z,5.11
2018-12-18T09:40:10.191Z,5.21
2018-12-18T09:42:45.129Z,5.29
2018-12-18T09:45:17.559Z,5.31
2018-12-18T09:47:47.579Z,5.26
2018-12-18T09:50:16.947Z,5.35
2018-12-18T09:52:46.244Z,5.34
2018-12-18T09:55:15.523Z,5.40
2018-12-18T09:58:03.244Z,5.45
2018-12-18T10:00:32.541Z,5.52
2018-12-18T10:03:01.694Z,5.42
2018-12-18T10:05:31.265Z,5.51
2018-12-18T10:08:00.897Z,5.42
2018-12-18T10:10:30.156Z,5.43
2018-12-18T10:12:59.350Z,5.54
2018-12-18T10:15:29.283Z,5.41
2018-12-18T10:17:58.572Z,5.49
2018-12-18T10:20:27.930Z,5.42
2018-12-18T10:22:57.140Z,5.53
2018-12-18T10:25:26.685Z,5.62
2018-12-18T10:27:56.349Z,5.61
2018-12-18T10:30:25.807Z,5.44
2018-12-18T10:32:55.120Z,5.48
2018-12-18T10:35:24.789Z,5.38
2018-12-18T10:37:54.038Z,5.42
2018-12-18T10:40:23.468Z,5.37
2018-12-18T10:42:52.642Z,5.48
2018-12-18T10:45:22.542Z,5.57
2018-12-18T10:47:51.760Z,5.52
2018-12-18T10:50:21.085Z,5.59
2018-12-18T10:53:02.841Z,5.70
2018-12-18T11:05:19.089Z,5.85
2018-12-18T11:08:01.280Z,5.65
2018-12-18T11:10:36.161Z,5.79
2018-12-18T11:13:17.555Z,5.83
2018-12-18T11:15:47.949Z,5.81
2018-12-18T11:18:17.280Z,5.55
2018-12-18T11:20:46.539Z,5.80
2018-12-18T11:23:15.845Z,5.80
2018-12-18T11:26:07.357Z,5.81
2018-12-18T11:29:00.303Z,5.90
2018-12-18T11:31:57.507Z,5.94
2018-12-18T11:34:41.094Z,5.88
2018-12-18T11:37:28.163Z,5.77
2018-12-18T11:40:15.025Z,5.95
2018-12-18T11:43:00.465Z,5.89
2018-12-18T11:45:30.885Z,5.81
2018-12-18T11:48:02.947Z,5.90
2018-12-18T11:50:32.346Z,5.94
2018-12-18T11:53:01.606Z,6.08
2018-12-18T11:55:31.046Z,5.96
2018-12-18T11:58:09.377Z,6.21
2018-12-18T12:00:42.655Z,6.28
2018-12-18T12:03:16.377Z,6.22
2018-12-18T12:05:47.602Z,6.14
2018-12-18T12:08:16.839Z,6.25
2018-12-18T12:10:46.067Z,6.22
2018-12-18T12:13:16.378Z,6.43
2018-12-18T12:15:45.595Z,6.57
2018-12-18T12:18:15.036Z,6.56
2018-12-18T12:20:44.258Z,6.58
2018-12-18T12:23:16.136Z,6.71
2018-12-18T12:25:46.489Z,6.73
2018-12-18T12:28:16.411Z,6.80
2018-12-18T12:30:45.645Z,6.91
2018-12-18T12:33:14.874Z,6.99
2018-12-18T12:35:44.262Z,6.95
2018-12-18T12:38:13.844Z,6.54
2018-12-18T12:40:43.095Z,6.34
2018-12-18T12:43:13.747Z,6.47
2018-12-18T12:45:43.402Z,6.22
2018-12-18T12:48:13.175Z,6.10
2018-12-18T12:50:42.710Z,6.05
2018-12-18T12:53:12.038Z,5.96
2018-12-18T12:55:41.755Z,5.99
2018-12-18T12:58:11.949Z,6.19
2018-12-18T13:00:41.210Z,6.30
2018-12-18T13:03:10.487Z,6.41
2018-12-18T13:05:39.703Z,6.35
2018-12-18T13:08:09.012Z,6.53
2018-12-18T13:10:38.346Z,6.26
2018-12-18T13:13:08.575Z,6.38
2018-12-18T13:15:39.126Z,6.45
2018-12-18T13:18:08.423Z,6.47
2018-12-18T13:20:38.577Z,6.56
2018-12-18T13:23:07.941Z,6.36
2018-12-18T13:25:38.764Z,6.41
2018-12-18T13:28:08.894Z,6.43
2018-12-18T13:30:38.793Z,6.42
2018-12-18T13:33:09.218Z,6.23
2018-12-18T13:35:39.004Z,6.07
2018-12-18T13:38:10.051Z,6.00
2018-12-18T13:40:41.356Z,5.87
2018-12-18T13:43:11.412Z,5.74
2018-12-18T13:45:41.781Z,5.85
2018-12-18T13:48:12.428Z,6.01
2018-12-18T13:50:42.435Z,6.19
2018-12-18T13:53:11.711Z,6.22
2018-12-18T13:55:42.672Z,5.96
2018-12-18T13:58:13.981Z,6.09
2018-12-18T14:00:43.599Z,6.17
2018-12-18T14:03:14.315Z,5.95
2018-12-18T14:05:43.776Z,5.45
2018-12-18T14:08:13.379Z,5.47
2018-12-18T14:10:43.105Z,5.34
2018-12-18T14:13:12.608Z,5.30
2018-12-18T14:15:41.913Z,5.34
2018-12-18T14:18:11.642Z,5.14
2018-12-18T14:20:41.490Z,5.15
2018-12-18T14:23:11.733Z,5.09
2018-12-18T14:25:41.375Z,5.02
2018-12-18T14:28:10.778Z,4.92
2018-12-18T14:30:41.109Z,4.86
2018-12-18T14:33:10.400Z,4.74
2018-12-18T14:35:39.598Z,4.61
2018-12-18T14:38:09.091Z,4.56
2018-12-18T14:40:39.229Z,4.33
2018-12-18T14:43:10.861Z,4.24
2018-12-18T14:45:41.294Z,4.25
2018-12-18T14:48:10.722Z,4.20
2018-12-18T14:50:40.589Z,4.04
2018-12-18T14:53:09.775Z,3.90
2018-12-18T14:55:39.057Z,3.34
2018-12-18T14:58:08.223Z,3.24
2018-12-18T15:00:38.652Z,3.15
2018-12-18T15:03:08.331Z,3.03
2018-12-18T15:05:37.555Z,2.78
2018-12-18T15:08:06.834Z,2.62
2018-12-18T15:10:36.039Z,2.22
2018-12-18T15:13:05.426Z,1.76
2018-12-18T15:15:35.534Z,1.52
2018-12-18T15:18:49.911Z,1.43
2018-12-18T15:21:21.550Z,1.35
2018-12-18T15:23:50.874Z,1.38
2018-12-18T15:26:20.299Z,1.44
2018-12-18T15:28:49.514Z,1.46
2018-12-18T15:31:19.649Z,1.49
2018-12-18T15:33:49.527Z,1.43
2018-12-18T15:36:18.823Z,1.49
2018-12-18T15:38:51.447Z,1.50
2018-12-18T15:41:29.298Z,1.44
2018-12-18T15:44:02.614Z,1.47
2018-12-18T15:46:41.589Z,1.52
2018-12-18T15:49:21.293Z,1.64
2018-12-18T15:51:54.917Z,1.60
2018-12-18T15:54:24.823Z,1.57
2018-12-18T15:56:54.441Z,1.65
2018-12-18T15:59:23.916Z,1.63
2018-12-18T16:01:53.229Z,1.56
2018-12-18T16:04:23.114Z,1.66
2018-12-18T16:06:53.515Z,1.55
2018-12-18T16:09:23.352Z,1.50
2018-12-18T16:11:52.872Z,1.54
2018-12-18T16:14:24.301Z,1.44
2018-12-18T16:16:54.043Z,1.45
2018-12-18T16:19:23.891Z,1.39
2018-12-18T16:21:54.238Z,1.50
2018-12-18T16:24:23.933Z,1.47
2018-12-18T16:26:53.289Z,1.37
2018-12-18T16:29:22.843Z,1.52
2018-12-18T16:31:52.055Z,1.68
2018-12-18T16:34:21.732Z,1.70
2018-12-18T16:36:51.660Z,1.57
2018-12-18T16:39:20.877Z,1.73
2018-12-18T16:41:50.910Z,1.71
2018-12-18T16:44:20.182Z,1.61
2018-12-18T16:46:50.730Z,1.57
2018-12-18T16:49:19.971Z,1.52
2018-12-18T16:51:49.669Z,1.61
2018-12-18T16:54:19.764Z,1.53
2018-12-18T16:56:50.971Z,1.62
2018-12-18T16:59:22.018Z,1.59
2018-12-18T17:01:51.781Z,1.56
2018-12-18T17:04:22.314Z,1.55
2018-12-18T17:06:52.682Z,1.51
2018-12-18T17:09:21.944Z,1.62
2018-12-18T17:11:51.408Z,1.58
2018-12-18T17:14:20.965Z,1.74
2018-12-18T17:16:50.241Z,1.80
2018-12-18T17:19:19.540Z,1.72
2018-12-18T17:21:49.058Z,1.90
2018-12-18T17:24:18.891Z,1.96
2018-12-18T17:26:48.299Z,2.02
2018-12-18T17:29:18.086Z,2.06
2018-12-18T17:31:47.385Z,2.05
2018-12-18T17:34:17.127Z,1.88
2018-12-18T17:36:46.290Z,1.92
2018-12-18T17:39:15.750Z,1.87
2018-12-18T17:41:45.635Z,1.82
2018-12-18T17:44:16.541Z,1.86
2018-12-18T17:46:46.538Z,1.88
2018-12-18T17:49:16.334Z,1.87
2018-12-18T17:51:46.156Z,1.88
2018-12-18T17:54:16.157Z,2.03
2018-12-18T17:56:45.614Z,1.80
2018-12-18T17:59:24.105Z,1.80
2018-12-18T18:01:54.430Z,1.73
2018-12-18T18:04:23.772Z,1.66
2018-12-18T18:06:57.978Z,1.60
2018-12-18T18:09:27.393Z,1.54
2018-12-18T18:11:57.278Z,1.45
2018-12-18T18:14:26.657Z,1.40
2018-12-18T18:16:56.035Z,1.38
2018-12-18T18:19:26.475Z,1.33
2018-12-18T18:21:56.634Z,1.40
2018-12-18T18:31:23.343Z,1.40
2018-12-18T18:33:53.067Z,1.45
2018-12-18T18:36:23.667Z,1.51
2018-12-18T18:38:53.235Z,1.51
2018-12-18T18:41:22.512Z,1.50
2018-12-18T18:43:54.360Z,1.54
2018-12-18T18:46:23.589Z,1.62
2018-12-18T18:48:54.843Z,1.62
2018-12-18T18:51:24.939Z,1.54
2018-12-18T18:53:54.925Z,1.58
2018-12-18T18:56:27.021Z,1.57
2018-12-18T18:58:58.278Z,1.57
2018-12-18T19:01:29.193Z,1.55
2018-12-18T19:03:59.357Z,1.58
2018-12-18T19:06:29.474Z,1.62
2018-12-18T19:08:58.811Z,1.64
2018-12-18T19:11:28.046Z,1.66
2018-12-18T19:13:58.475Z,1.60
2018-12-18T19:16:29.000Z,1.65
2018-12-18T19:18:58.670Z,1.66
2018-12-18T19:21:32.499Z,1.63
2018-12-18T19:24:01.919Z,1.68
2018-12-18T19:26:31.410Z,1.65
2018-12-18T19:29:00.884Z,1.72
2018-12-18T19:31:30.302Z,1.72
2018-12-18T19:33:59.927Z,1.73
2018-12-18T19:36:29.283Z,1.80
2018-12-18T19:38:58.471Z,1.84
2018-12-18T19:41:27.729Z,1.81
2018-12-18T19:43:57.274Z,1.82
2018-12-18T19:46:27.127Z,1.84
2018-12-18T19:48:57.274Z,1.88
2018-12-18T19:51:26.840Z,1.88
2018-12-18T19:53:56.386Z,1.94
2018-12-18T19:56:26.629Z,1.93
2018-12-18T19:58:56.236Z,1.87
2018-12-18T20:01:27.600Z,1.87
2018-12-18T20:03:58.850Z,1.83
2018-12-18T20:06:28.671Z,1.83
2018-12-18T20:08:59.800Z,1.78
2018-12-18T20:11:30.477Z,1.76
2018-12-18T20:14:00.176Z,1.73
2018-12-18T20:16:29.921Z,1.72
2018-12-18T20:19:00.096Z,1.68
2018-12-18T20:21:31.929Z,1.68
2018-12-18T20:24:01.402Z,1.70
2018-12-18T20:26:31.633Z,1.71
2018-12-18T20:29:16.155Z,1.72
2018-12-18T20:31:45.523Z,1.72
2018-12-18T20:34:15.324Z,1.74
2018-12-18T20:36:45.360Z,1.71
2018-12-18T20:39:14.768Z,1.68
2018-12-18T20:41:44.239Z,1.73
2018-12-18T20:44:13.674Z,1.71
2018-12-18T20:46:43.828Z,1.70
2018-12-18T20:49:14.925Z,1.68
2018-12-18T20:51:44.190Z,1.71
2018-12-18T20:54:13.737Z,1.67
2018-12-18T20:56:44.782Z,1.68
2018-12-18T20:59:15.525Z,1.67
2018-12-18T21:01:44.891Z,1.67
2018-12-18T21:04:14.600Z,1.78
2018-12-18T21:06:45.143Z,1.68
2018-12-18T21:09:17.841Z,1.74
2018-12-18T21:11:48.276Z,1.76
2018-12-18T21:14:22.036Z,1.75
2018-12-18T21:16:51.695Z,1.72
2018-12-18T21:19:21.409Z,1.68
2018-12-18T21:21:51.121Z,1.74
2018-12-18T21:24:22.138Z,1.78
2018-12-18T21:26:51.627Z,1.78
2018-12-18T21:29:39.210Z,1.74
2018-12-18T21:32:10.817Z,1.77
2018-12-18T21:34:40.421Z,1.79
2018-12-18T21:37:11.682Z,1.78
2018-12-18T21:39:42.792Z,1.84
2018-12-18T21:42:12.156Z,1.84
2018-12-18T21:44:44.647Z,1.80
2018-12-18T21:47:13.915Z,1.85
2018-12-18T21:49:45.098Z,1.89
2018-12-18T21:52:14.401Z,1.84
2018-12-18T21:54:43.647Z,1.88
2018-12-18T21:57:12.917Z,1.85
2018-12-18T21:59:42.210Z,1.93
2018-12-18T22:02:11.543Z,1.92
2018-12-18T22:04:40.852Z,1.91
2018-12-18T22:07:10.125Z,1.98
2018-12-18T22:09:39.440Z,1.90
2018-12-18T22:12:08.706Z,1.91
2018-12-18T22:14:38.089Z,1.85
2018-12-18T22:17:09.231Z,1.85
2018-12-18T22:19:38.737Z,1.80
2018-12-18T22:22:09.114Z,1.81
2018-12-18T22:24:38.415Z,1.92
2018-12-18T22:27:07.782Z,1.91
2018-12-18T22:29:38.807Z,1.90
2018-12-18T22:32:10.691Z,1.94
2018-12-18T22:34:41.034Z,1.94
2018-12-18T22:37:11.570Z,1.95
2018-12-18T22:39:40.946Z,1.83
2018-12-18T22:42:10.222Z,1.83
2018-12-18T22:44:39.442Z,1.80
2018-12-18T22:47:09.936Z,1.84
2018-12-18T22:49:40.030Z,1.76
2018-12-18T22:52:09.343Z,1.73
2018-12-18T22:54:38.629Z,1.72
2018-12-18T22:57:07.944Z,1.72
2018-12-18T22:59:37.444Z,1.74
2018-12-18T23:02:13.089Z,1.75
2018-12-18T23:04:42.651Z,1.86
2018-12-18T23:07:13.967Z,1.86
2018-12-18T23:09:43.189Z,1.89
2018-12-18T23:12:12.617Z,1.88
2018-12-18T23:14:41.867Z,1.89
2018-12-18T23:17:11.378Z,1.92
2018-12-18T23:19:41.097Z,1.90
2018-12-18T23:22:11.593Z,1.98
2018-12-18T23:24:41.415Z,1.96
2018-12-18T23:27:12.858Z,1.96
2018-12-18T23:29:42.407Z,2.00
2018-12-18T23:32:12.164Z,2.00
2018-12-18T23:34:42.476Z,2.00
2018-12-18T23:37:15.499Z,2.00
2018-12-18T23:39:45.551Z,2.03
2018-12-18T23:42:15.346Z,2.05
2018-12-18T23:44:45.546Z,2.10
2018-12-18T23:47:15.442Z,2.03
2018-12-18T23:49:44.838Z,2.00
2018-12-18T23:52:14.962Z,2.11
2018-12-18T23:54:45.147Z,2.09
2018-12-18T23:57:14.811Z,2.11
2018-12-18T23:59:44.197Z,2.11
